Time;durP1;ratioP1;P1;durP2;ratioP2;P2;SDS_P1;SDS_P2;PMS_P1;PMS_P2;Temp;Humidity;BMP_temperature;BMP_pressure;BME280_temperature;BME280_humidity;BME280_pressure;Samples;Min_cycle;Max_cycle;Signal;HPM_P1;HPM_P2
2022/05/19 00:01:07;;;;;;;3.20;2.78;;;27.20;47.90;28.70;101029.00;;;;4970087;28;20267;-49
2022/05/19 00:03:35;;;;;;;3.92;3.03;;;27.10;47.80;28.70;101029.00;;;;4985918;28;20164;-48
2022/05/19 00:06:01;;;;;;;4.03;3.05;;;27.00;47.90;28.60;101024.00;;;;4987044;28;20299;-50
2022/05/19 00:08:27;;;;;;;3.45;2.75;;;27.10;47.80;28.60;101037.00;;;;4986848;28;20322;-49
2022/05/19 00:10:55;;;;;;;3.40;3.03;;;27.10;47.70;28.60;101031.00;;;;4987067;28;20675;-50
2022/05/19 00:13:22;;;;;;;3.40;3.13;;;27.10;48.00;28.60;101028.00;;;;4987248;28;20251;-51
2022/05/19 00:15:47;;;;;;;3.20;2.90;;;27.10;48.00;28.60;101026.00;;;;4987006;28;20617;-50
2022/05/19 00:18:13;;;;;;;3.78;2.92;;;27.00;47.70;28.60;101038.00;;;;4986691;28;20250;-50
2022/05/19 00:20:39;;;;;;;3.42;3.13;;;27.00;47.90;28.50;101019.00;;;;4986658;28;20258;-49
2022/05/19 00:23:05;;;;;;;4.13;2.90;;;27.00;47.80;28.50;101022.00;;;;4987010;28;20176;-49
2022/05/19 00:25:31;;;;;;;3.20;2.90;;;26.90;47.60;28.50;101017.00;;;;4986764;28;20849;-48
2022/05/19 00:27:56;;;;;;;4.47;3.10;;;26.90;48.50;28.50;101022.00;;;;4986605;28;20180;-49
2022/05/19 00:30:22;;;;;;;3.53;3.17;;;26.90;47.70;28.40;101026.00;;;;4987045;28;20687;-50
2022/05/19 00:32:48;;;;;;;3.67;2.90;;;26.90;47.90;28.40;101019.00;;;;4987731;28;20259;-49
2022/05/19 00:35:15;;;;;;;3.15;2.90;;;26.90;47.80;28.40;101022.00;;;;4988516;28;20642;-48
2022/05/19 00:37:41;;;;;;;3.97;2.90;;;26.90;47.80;28.40;101023.00;;;;4987270;28;20811;-50
2022/05/19 00:40:08;;;;;;;3.90;2.92;;;26.80;47.90;28.40;101022.00;;;;4986600;28;20276;-49
2022/05/19 00:42:46;;;;;;;3.35;3.05;;;26.80;47.80;28.30;101018.00;;;;4987065;28;20191;-48
2022/05/19 00:45:23;;;;;;;3.40;3.10;;;26.80;47.70;28.30;101020.00;;;;4986464;28;20669;-50
2022/05/19 00:47:54;;;;;;;3.35;3.00;;;26.70;47.80;28.30;100999.00;;;;4986220;28;20206;-48
2022/05/19 00:50:26;;;;;;;3.35;2.95;;;26.70;47.80;28.30;101017.00;;;;4985345;28;20156;-50
2022/05/19 00:52:57;;;;;;;3.10;2.80;;;26.70;48.00;28.20;101021.00;;;;4969734;28;20204;-49
2022/05/19 00:55:37;;;;;;;3.20;2.90;;;26.70;47.80;28.20;101014.00;;;;4985424;28;20165;-49
2022/05/19 00:58:10;;;;;;;3.55;3.25;;;26.70;47.90;28.20;101008.00;;;;4984543;28;20541;-49
2022/05/19 01:00:35;;;;;;;5.15;3.10;;;26.70;48.00;28.20;101013.00;;;;4985142;28;20171;-48
2022/05/19 01:03:01;;;;;;;3.80;3.10;;;26.70;47.70;28.20;101001.00;;;;4985208;28;20176;-48
2022/05/19 01:05:45;;;;;;;3.92;3.10;;;26.60;47.60;28.20;101006.00;;;;4986522;28;20207;-50
2022/05/19 01:08:23;;;;;;;3.10;2.80;;;26.60;47.80;28.10;101001.00;;;;4986068;28;20196;-48
2022/05/19 01:10:49;;;;;;;3.30;3.00;;;26.60;47.70;28.10;100993.00;;;;4970623;28;20692;-49
2022/05/19 01:13:15;;;;;;;3.17;2.80;;;26.50;47.80;28.10;100992.00;;;;4969272;28;20188;-49
2022/05/19 01:15:44;;;;;;;2.97;2.75;;;26.50;47.70;28.10;100990.00;;;;4986141;28;20184;-50
2022/05/19 01:18:11;;;;;;;3.35;3.00;;;26.50;47.80;28.00;100985.00;;;;4969036;28;20188;-50
2022/05/19 01:20:38;;;;;;;4.38;3.00;;;26.50;47.70;28.00;100988.00;;;;4985017;28;20184;-50
2022/05/19 01:23:44;;;;;;;3.97;2.95;;;26.40;47.70;28.00;100983.00;;;;4986505;28;20183;-49
2022/05/19 01:26:27;;;;;;;3.25;2.92;;;26.40;47.70;27.90;100984.00;;;;4991571;28;20260;-51
2022/05/19 01:28:54;;;;;;;3.72;2.90;;;26.40;47.60;27.90;100991.00;;;;5003232;28;20256;-49
2022/05/19 01:31:38;;;;;;;3.28;2.95;;;26.40;47.70;27.90;100991.00;;;;5003118;28;20183;-50
2022/05/19 01:34:06;;;;;;;3.10;2.90;;;26.40;47.80;27.90;100993.00;;;;4986259;28;20308;-50
2022/05/19 01:36:32;;;;;;;3.97;2.80;;;26.40;47.60;27.90;101002.00;;;;4985841;28;20176;-48
2022/05/19 01:39:28;;;;;;;3.22;2.92;;;26.40;47.70;27.90;101002.00;;;;4985654;28;20196;-48
2022/05/19 01:42:16;;;;;;;5.03;3.10;;;26.40;47.70;27.80;100998.00;;;;4986061;28;20255;-48
2022/05/19 01:45:03;;;;;;;4.72;2.90;;;26.40;48.80;27.80;100987.00;;;;4985905;28;20173;-48
2022/05/19 01:47:57;;;;;;;3.40;3.10;;;26.40;48.10;27.80;100981.00;;;;4988155;28;20218;-49
2022/05/19 01:50:36;;;;;;;3.30;3.00;;;26.40;48.00;27.70;100977.00;;;;4989537;28;20279;-50
2022/05/19 01:53:39;;;;;;;3.08;2.78;;;26.30;47.90;27.70;100964.00;;;;4972432;28;20196;-50
2022/05/19 01:56:38;;;;;;;3.13;2.90;;;26.30;47.90;27.70;100965.00;;;;4988496;28;20188;-49
2022/05/19 01:59:29;;;;;;;3.30;2.80;;;26.30;47.90;27.70;100971.00;;;;4988216;28;20446;-48
2022/05/19 02:02:27;;;;;;;3.95;3.10;;;26.30;47.90;27.60;100959.00;;;;4989414;28;20191;-48
2022/05/19 02:05:25;;;;;;;3.75;2.80;;;26.30;47.80;27.60;100965.00;;;;4988456;28;20255;-49
2022/05/19 02:07:52;;;;;;;3.00;2.70;;;26.20;47.90;27.60;100957.00;;;;4988035;28;20187;-49
2022/05/19 02:10:29;;;;;;;2.90;2.70;;;26.20;47.90;27.50;100960.00;;;;4972055;28;20195;-50
2022/05/19 02:12:55;;;;;;;3.30;3.00;;;26.20;48.00;27.60;100963.00;;;;4990481;28;20325;-49
2022/05/19 02:15:22;;;;;;;3.85;3.05;;;26.20;47.90;27.60;100966.00;;;;4973027;28;20196;-48
2022/05/19 02:17:48;;;;;;;4.70;2.90;;;26.20;47.90;27.50;100958.00;;;;4972799;28;20348;-49
2022/05/19 02:20:15;;;;;;;3.72;2.95;;;26.20;47.80;27.50;100955.00;;;;4972155;28;20200;-49
2022/05/19 02:22:43;;;;;;;3.30;3.00;;;26.20;47.90;27.50;100960.00;;;;4955752;28;20229;-49
2022/05/19 02:25:34;;;;;;;3.30;3.00;;;26.10;48.00;27.50;100953.00;;;;4988751;28;20555;-49
2022/05/19 02:28:21;;;;;;;4.05;3.20;;;26.10;48.00;27.40;100949.00;;;;4987898;28;20164;-50
2022/05/19 02:30:47;;;;;;;3.20;2.90;;;26.10;48.00;27.40;100957.00;;;;4975007;28;20298;-50
2022/05/19 02:33:14;;;;;;;3.83;2.95;;;26.10;47.90;27.20;100966.00;;;;4989231;28;20578;-49
2022/05/19 02:35:40;;;;;;;3.28;2.88;;;26.10;48.00;27.40;100915.00;;;;4987401;28;20172;-49
2022/05/19 02:38:06;;;;;;;3.42;3.13;;;26.10;48.30;27.40;100970.00;;;;4988471;28;20239;-49
2022/05/19 02:40:33;;;;;;;3.20;2.90;;;26.10;48.00;27.40;100970.00;;;;4988710;28;20196;-49
2022/05/19 02:42:59;;;;;;;3.55;3.10;;;26.10;47.80;27.40;100969.00;;;;4988876;28;20176;-47
2022/05/19 02:45:27;;;;;;;3.20;2.90;;;26.10;48.00;27.40;100968.00;;;;4988418;28;20565;-48
2022/05/19 02:47:53;;;;;;;3.80;3.22;;;26.10;48.00;27.40;100971.00;;;;4988545;28;20395;-48
2022/05/19 02:50:20;;;;;;;3.25;2.95;;;26.00;48.10;27.40;100977.00;;;;4988377;28;20649;-47
2022/05/19 02:52:45;;;;;;;3.50;3.00;;;26.00;48.20;27.40;100973.00;;;;4988550;28;20668;-48
2022/05/19 02:55:11;;;;;;;3.35;2.97;;;26.00;48.10;27.30;100969.00;;;;4988750;28;20168;-47
2022/05/19 02:57:37;;;;;;;3.83;2.90;;;26.00;48.10;27.30;100972.00;;;;4987424;28;20591;-48
2022/05/19 03:00:05;;;;;;;3.88;3.10;;;26.00;48.20;27.30;100974.00;;;;4988361;28;20188;-49
2022/05/19 03:02:31;;;;;;;3.42;2.90;;;26.00;48.20;27.30;100959.00;;;;4989002;28;20184;-48
2022/05/19 03:04:58;;;;;;;3.22;2.97;;;26.00;48.00;27.30;100973.00;;;;4987453;28;20227;-49
2022/05/19 03:07:24;;;;;;;4.75;3.17;;;26.00;48.10;27.30;100968.00;;;;4988632;28;20176;-48
2022/05/19 03:09:50;;;;;;;3.38;3.08;;;26.00;48.20;27.30;100978.00;;;;4988672;28;20272;-50
2022/05/19 03:12:16;;;;;;;3.60;3.08;;;26.00;48.20;27.20;100967.00;;;;4988508;28;20251;-50
2022/05/19 03:14:41;;;;;;;4.63;3.00;;;26.00;48.20;27.20;100970.00;;;;4988209;28;20612;-50
2022/05/19 03:17:08;;;;;;;4.13;2.97;;;26.00;48.20;27.20;100972.00;;;;4988809;28;20157;-48
2022/05/19 03:19:35;;;;;;;8.20;3.17;;;26.00;48.20;27.20;100976.00;;;;4988108;28;20187;-50
2022/05/19 03:22:01;;;;;;;4.20;2.97;;;26.00;48.30;27.20;100967.00;;;;4988071;28;20180;-49
2022/05/19 03:24:26;;;;;;;4.22;3.15;;;26.00;48.20;27.20;100963.00;;;;4987836;28;20267;-49
2022/05/19 03:26:52;;;;;;;3.83;2.85;;;25.90;48.20;27.20;100962.00;;;;4988134;28;20338;-48
2022/05/19 03:29:18;;;;;;;3.55;3.00;;;25.90;48.30;27.10;100964.00;;;;4987718;28;20635;-49
2022/05/19 03:31:44;;;;;;;3.35;3.05;;;25.80;48.20;27.10;100971.00;;;;4988257;28;20173;-48
2022/05/19 03:34:09;;;;;;;4.07;3.10;;;25.80;48.20;27.10;100957.00;;;;4987933;28;20553;-48
2022/05/19 03:36:35;;;;;;;3.33;2.97;;;25.80;48.20;27.10;100964.00;;;;4987931;28;20207;-47
2022/05/19 03:39:01;;;;;;;4.90;3.10;;;25.80;48.40;27.10;100960.00;;;;4986353;28;20196;-50
2022/05/19 03:41:26;;;;;;;3.58;3.00;;;25.70;48.20;27.00;100956.00;;;;4987642;28;20200;-49
2022/05/19 03:43:52;;;;;;;3.60;2.83;;;25.70;48.30;27.00;100963.00;;;;4987154;28;20176;-49
2022/05/19 03:46:18;;;;;;;3.70;3.30;;;25.60;48.30;27.00;100966.00;;;;4987282;28;20585;-49
2022/05/19 03:48:44;;;;;;;3.70;2.88;;;25.70;48.30;27.00;100961.00;;;;4987465;28;20259;-50
2022/05/19 03:51:23;;;;;;;3.30;3.00;;;25.70;48.30;27.00;100956.00;;;;4987130;28;20172;-48
2022/05/19 03:53:50;;;;;;;3.42;3.13;;;25.70;48.30;27.00;100960.00;;;;4969895;28;20156;-48
2022/05/19 03:56:17;;;;;;;3.35;3.03;;;25.70;48.40;27.00;100958.00;;;;4979156;28;20181;-47
2022/05/19 03:58:42;;;;;;;3.10;2.80;;;25.60;48.30;26.90;100948.00;;;;4987430;28;20207;-48
2022/05/19 04:01:08;;;;;;;3.30;3.00;;;25.60;48.50;26.90;100959.00;;;;4988625;28;20176;-48
2022/05/19 04:03:34;;;;;;;4.45;2.92;;;25.60;48.60;26.90;100964.00;;;;4987231;28;20213;-47
2022/05/19 04:06:00;;;;;;;3.97;2.95;;;25.60;48.70;26.90;100962.00;;;;4987395;28;20200;-48
2022/05/19 04:08:25;;;;;;;3.65;3.03;;;25.50;48.70;26.90;100963.00;;;;4986673;28;20255;-48
2022/05/19 04:10:51;;;;;;;3.47;3.17;;;25.50;48.70;26.80;100965.00;;;;4987220;28;20668;-48
2022/05/19 04:13:17;;;;;;;3.53;3.13;;;25.50;48.70;26.80;100965.00;;;;4987059;28;20199;-48
2022/05/19 04:15:43;;;;;;;3.50;3.00;;;25.50;48.70;26.80;100968.00;;;;4986841;28;20181;-49
2022/05/19 04:18:09;;;;;;;3.15;2.85;;;25.50;48.70;26.80;100967.00;;;;4986113;28;20637;-49
2022/05/19 04:20:34;;;;;;;4.57;3.00;;;25.50;48.70;26.80;100970.00;;;;4986577;28;20254;-50
2022/05/19 04:23:00;;;;;;;5.15;3.08;;;25.50;48.80;26.80;100972.00;;;;4986815;28;20180;-49
2022/05/19 04:25:27;;;;;;;3.28;2.70;;;25.50;48.70;26.80;100972.00;;;;4986034;28;20199;-48
2022/05/19 04:27:52;;;;;;;6.32;3.17;;;25.50;48.70;26.80;100981.00;;;;4986688;28;20645;-48
2022/05/19 04:30:18;;;;;;;5.22;3.25;;;25.50;48.70;26.80;100970.00;;;;4986884;28;20175;-48
2022/05/19 04:32:44;;;;;;;6.88;3.35;;;25.50;48.80;26.80;100973.00;;;;4987302;28;20203;-49
2022/05/19 04:35:11;;;;;;;5.07;3.53;;;25.50;48.80;26.80;100975.00;;;;4986631;28;20231;-49
2022/05/19 04:37:36;;;;;;;3.80;3.08;;;25.50;48.80;26.80;100978.00;;;;4985045;28;20215;-49
2022/05/19 04:40:03;;;;;;;3.90;2.90;;;25.50;48.80;26.70;100977.00;;;;4986902;28;20231;-48
2022/05/19 04:42:29;;;;;;;5.03;3.20;;;25.50;48.90;26.70;100972.00;;;;4986709;28;20191;-47
2022/05/19 04:44:55;;;;;;;4.63;3.20;;;25.50;48.90;26.70;100970.00;;;;4986395;28;20557;-49
2022/05/19 04:47:21;;;;;;;3.28;2.97;;;25.40;48.80;26.70;100985.00;;;;4987751;28;20287;-50
2022/05/19 04:49:46;;;;;;;3.63;2.92;;;25.50;48.90;26.70;100985.00;;;;4989059;28;20577;-48
2022/05/19 04:52:12;;;;;;;5.38;3.05;;;25.50;48.80;26.70;100983.00;;;;4988400;28;20184;-49
2022/05/19 04:54:38;;;;;;;3.53;2.80;;;25.40;48.90;26.70;100983.00;;;;4985507;28;20176;-48
2022/05/19 04:57:04;;;;;;;4.80;3.10;;;25.50;49.00;26.70;100991.00;;;;4986472;28;20195;-48
2022/05/19 04:59:31;;;;;;;3.80;3.05;;;25.50;48.90;26.70;100981.00;;;;4985069;28;20736;-48
2022/05/19 05:01:57;;;;;;;5.20;3.17;;;25.50;49.20;26.70;100985.00;;;;4986284;28;20157;-49
2022/05/19 05:04:26;;;;;;;3.92;2.65;;;25.50;49.20;26.60;100985.00;;;;4986134;28;20207;-49
2022/05/19 05:06:52;;;;;;;4.57;3.10;;;25.50;49.20;26.60;100985.00;;;;4986564;28;20703;-49
2022/05/19 05:09:18;;;;;;;3.20;2.75;;;25.50;49.20;26.60;100985.00;;;;4999466;28;20195;-48
2022/05/19 05:11:44;;;;;;;3.25;2.95;;;25.50;49.30;26.60;100962.00;;;;5002639;28;20168;-48
2022/05/19 05:14:10;;;;;;;4.07;2.80;;;25.40;49.20;26.60;100979.00;;;;4992835;28;20160;-49
2022/05/19 05:16:36;;;;;;;3.25;2.95;;;25.50;49.20;26.60;100977.00;;;;4986017;28;20235;-49
2022/05/19 05:19:03;;;;;;;5.03;2.90;;;25.50;49.20;26.60;100982.00;;;;4986162;28;20235;-49
2022/05/19 05:21:29;;;;;;;4.47;3.00;;;25.40;49.10;26.60;100977.00;;;;4987633;28;20219;-50
2022/05/19 05:23:55;;;;;;;3.42;2.90;;;25.40;49.10;26.60;100980.00;;;;4990448;28;20176;-50
2022/05/19 05:26:20;;;;;;;3.10;2.80;;;25.40;49.20;26.50;100974.00;;;;4990028;28;20204;-49
2022/05/19 05:28:46;;;;;;;3.22;2.92;;;25.40;49.20;26.50;100979.00;;;;4989875;28;20555;-49
2022/05/19 05:31:12;;;;;;;3.25;2.95;;;25.40;49.20;26.50;100980.00;;;;4989950;28;20173;-50
2022/05/19 05:33:37;;;;;;;3.88;3.05;;;25.40;49.20;26.50;100977.00;;;;4992708;28;20231;-50
2022/05/19 05:36:04;;;;;;;5.43;3.20;;;25.40;49.30;26.50;100988.00;;;;4991335;28;20677;-48
2022/05/19 05:38:29;;;;;;;3.20;2.90;;;25.40;49.70;26.50;100989.00;;;;4990281;28;20197;-50
2022/05/19 05:40:55;;;;;;;3.00;2.80;;;25.40;49.40;26.50;100992.00;;;;4990208;28;20187;-51
2022/05/19 05:43:21;;;;;;;3.00;2.80;;;25.40;49.30;26.50;101004.00;;;;4988994;28;20725;-50
2022/05/19 05:45:48;;;;;;;2.95;2.75;;;25.40;49.40;26.50;101041.00;;;;4988072;28;20199;-48
2022/05/19 05:48:14;;;;;;;3.40;3.10;;;25.40;49.40;26.50;101052.00;;;;4989685;28;20228;-56
2022/05/19 05:50:39;;;;;;;4.82;2.72;;;25.50;49.20;26.50;101042.00;;;;4989461;28;20200;-50
2022/05/19 05:53:06;;;;;;;5.13;2.90;;;25.50;49.20;26.50;101053.00;;;;4989660;28;20165;-50
2022/05/19 05:55:31;;;;;;;5.72;3.00;;;25.50;49.30;26.50;101044.00;;;;4989404;28;20231;-50
2022/05/19 05:57:57;;;;;;;3.53;3.03;;;25.40;49.20;26.50;101052.00;;;;4989437;28;20600;-50
2022/05/19 06:00:23;;;;;;;5.00;2.85;;;25.50;49.40;26.50;101058.00;;;;4989343;28;20176;-50
2022/05/19 06:02:49;;;;;;;3.95;2.97;;;25.50;49.50;26.50;101067.00;;;;4989693;28;20200;-50
2022/05/19 06:05:15;;;;;;;3.58;3.28;;;25.40;49.50;26.50;101065.00;;;;4989285;28;20705;-48
2022/05/19 06:07:41;;;;;;;5.35;2.90;;;25.50;49.40;26.50;101066.00;;;;4989129;28;20204;-50
2022/05/19 06:10:09;;;;;;;4.80;2.95;;;25.40;49.50;26.50;101081.00;;;;4990311;28;20639;-50
2022/05/19 06:12:35;;;;;;;4.95;3.00;;;25.50;49.70;26.50;101071.00;;;;4989562;28;20168;-48
2022/05/19 06:15:00;;;;;;;4.03;3.10;;;25.50;49.70;26.50;101086.00;;;;4989151;28;20262;-47
2022/05/19 06:17:26;;;;;;;3.30;3.00;;;25.40;49.40;26.50;101085.00;;;;4989417;28;20181;-48
2022/05/19 06:19:52;;;;;;;3.92;3.20;;;25.50;49.90;26.50;101088.00;;;;4989521;28;20196;-50
2022/05/19 06:22:18;;;;;;;3.58;3.15;;;25.50;50.00;26.50;101073.00;;;;4889605;28;20861;-49
2022/05/19 06:24:44;;;;;;;3.38;3.08;;;25.40;49.70;26.50;101071.00;;;;4988573;28;20885;-50
2022/05/19 06:27:10;;;;;;;3.45;3.10;;;25.40;50.10;26.50;101062.00;;;;4988499;28;20796;-54
2022/05/19 06:29:36;;;;;;;4.00;3.10;;;25.50;50.00;26.50;101072.00;;;;4988839;28;20184;-50
2022/05/19 06:32:02;;;;;;;4.72;3.08;;;25.50;50.20;26.50;101063.00;;;;4988139;28;20196;-49
2022/05/19 06:34:27;;;;;;;3.97;3.08;;;25.50;50.00;26.50;101048.00;;;;4987636;28;20149;-48
2022/05/19 06:36:53;;;;;;;3.30;3.10;;;25.50;50.20;26.50;101036.00;;;;4988088;28;20183;-48
2022/05/19 06:39:19;;;;;;;5.15;3.17;;;25.50;49.90;26.50;101033.00;;;;4988441;28;20196;-49
2022/05/19 06:42:03;;;;;;;3.33;3.03;;;25.40;50.10;26.40;101048.00;;;;4988605;28;20165;-47
2022/05/19 06:44:35;;;;;;;3.72;2.95;;;25.50;50.20;26.40;101065.00;;;;4988510;28;20577;-49
2022/05/19 06:47:00;;;;;;;4.13;3.40;;;25.50;50.10;26.40;101055.00;;;;4987814;28;20197;-49
2022/05/19 06:49:26;;;;;;;5.40;3.25;;;25.40;50.10;26.40;101051.00;;;;4988349;28;20184;-48
2022/05/19 06:51:52;;;;;;;6.40;3.42;;;25.50;50.20;26.40;101039.00;;;;4988253;28;20184;-48
2022/05/19 06:54:20;;;;;;;3.10;2.90;;;25.40;50.30;26.40;101041.00;;;;4987455;28;20172;-48
2022/05/19 06:56:46;;;;;;;3.97;3.10;;;25.40;50.30;26.40;101037.00;;;;4987362;28;20188;-48
2022/05/19 06:59:11;;;;;;;3.58;3.20;;;25.40;50.40;26.40;101035.00;;;;4986930;28;20230;-49
2022/05/19 07:01:37;;;;;;;3.65;3.10;;;25.30;50.40;26.40;101036.00;;;;4987437;28;20187;-49
2022/05/19 07:04:03;;;;;;;4.32;3.17;;;25.30;50.30;26.40;101030.00;;;;4988120;28;20179;-48
2022/05/19 07:06:29;;;;;;;3.85;3.25;;;25.40;50.30;26.40;101020.00;;;;4988379;28;20231;-49
2022/05/19 07:08:55;;;;;;;3.30;3.00;;;25.30;50.30;26.40;101015.00;;;;4987678;28;20195;-49
2022/05/19 07:11:26;;;;;;;3.38;3.08;;;25.30;50.40;26.40;101024.00;;;;4989262;28;20597;-48
2022/05/19 07:14:01;;;;;;;3.88;2.90;;;25.30;50.30;26.40;101021.00;;;;4989916;28;20149;-48
2022/05/19 07:16:28;;;;;;;4.45;3.00;;;25.40;50.40;26.40;101027.00;;;;4989752;28;20191;-49
2022/05/19 07:20:43;;;;;;;3.47;3.05;;;25.30;50.70;26.40;101018.00;;;;4988026;28;20682;-48
2022/05/19 07:21:42;;;;;;;4.25;3.20;;;25.30;50.70;26.20;101036.00;;;;4930542;28;20695;-53
2022/05/19 07:24:14;;;;;;;4.05;3.13;;;25.30;50.60;26.30;101007.00;;;;4976248;28;20182;-50
2022/05/19 07:26:40;;;;;;;3.50;2.90;;;25.30;50.60;26.30;101008.00;;;;4988199;28;20189;-48
2022/05/19 07:29:06;;;;;;;3.00;2.80;;;25.30;50.60;26.30;101008.00;;;;4987949;28;20196;-49
2022/05/19 07:31:32;;;;;;;3.25;2.95;;;25.30;50.60;26.30;101010.00;;;;4987575;28;20177;-48
2022/05/19 07:33:57;;;;;;;3.47;2.90;;;25.30;50.70;26.30;101008.00;;;;4987909;28;20227;-56
2022/05/19 07:36:23;;;;;;;4.95;3.40;;;25.30;50.70;26.30;101010.00;;;;4987742;28;20177;-48
2022/05/19 07:38:49;;;;;;;3.97;3.13;;;25.30;50.70;26.30;101012.00;;;;4988342;28;20822;-49
2022/05/19 07:41:15;;;;;;;4.15;3.15;;;25.40;51.00;26.30;101007.00;;;;4989086;28;20180;-49
2022/05/19 07:43:41;;;;;;;3.95;3.55;;;25.30;51.00;26.30;101005.00;;;;4988159;28;20179;-51
2022/05/19 07:46:08;;;;;;;4.77;3.30;;;25.30;51.00;26.30;101002.00;;;;4987291;28;20776;-49
2022/05/19 07:48:35;;;;;;;3.40;3.10;;;25.30;51.00;26.30;100990.00;;;;4987098;28;20203;-49
2022/05/19 07:51:02;;;;;;;3.70;3.10;;;25.30;51.20;26.30;100985.00;;;;4973445;28;20238;-49
2022/05/19 07:53:28;;;;;;;4.25;3.25;;;25.30;51.10;26.30;100990.00;;;;4987611;28;20556;-47
2022/05/19 07:55:54;;;;;;;6.07;3.15;;;25.40;52.10;26.30;100985.00;;;;4986870;28;20164;-47
2022/05/19 07:58:19;;;;;;;3.65;3.20;;;25.40;52.10;26.40;100990.00;;;;4987171;28;20208;-47
2022/05/19 08:00:46;;;;;;;3.22;2.92;;;25.30;51.80;26.40;100977.00;;;;4987602;28;20667;-48
2022/05/19 08:03:13;;;;;;;3.30;3.00;;;25.40;52.30;26.40;100985.00;;;;4987340;28;20812;-48
2022/05/19 08:05:39;;;;;;;3.50;3.20;;;25.40;52.90;26.40;100974.00;;;;4987030;28;20193;-48
2022/05/19 08:08:05;;;;;;;5.32;3.08;;;25.40;52.30;26.40;100982.00;;;;4986940;28;20191;-48
2022/05/19 08:10:31;;;;;;;4.22;3.10;;;25.40;52.10;26.40;100985.00;;;;4986006;28;20178;-49
2022/05/19 08:15:44;;;;;;;3.20;2.92;;;25.40;52.30;26.40;101003.00;;;;4987021;28;20226;-48
2022/05/19 08:18:21;;;;;;;3.30;3.00;;;25.40;52.30;26.40;100996.00;;;;4986870;28;20216;-49
2022/05/19 08:20:56;;;;;;;3.72;3.03;;;25.40;52.30;26.40;100997.00;;;;4987466;28;20211;-48
2022/05/19 08:23:29;;;;;;;4.22;3.22;;;25.40;52.30;26.40;100998.00;;;;4913130;28;20176;-50
2022/05/19 08:25:55;;;;;;;3.58;3.28;;;25.40;52.50;26.40;100997.00;;;;4986705;28;20601;-48
2022/05/19 08:28:21;;;;;;;4.53;3.45;;;25.50;52.40;26.40;100996.00;;;;4986217;28;20195;-50
2022/05/19 08:30:49;;;;;;;4.10;3.05;;;25.40;52.50;26.50;100988.00;;;;4982417;28;20205;-47
2022/05/19 08:33:16;;;;;;;4.55;3.20;;;25.40;52.90;26.40;100985.00;;;;4989736;28;20168;-50
2022/05/19 08:35:42;;;;;;;3.60;3.05;;;25.50;52.90;26.50;100982.00;;;;4989779;28;20230;-50
2022/05/19 08:38:07;;;;;;;3.33;3.05;;;25.50;52.70;26.40;100985.00;;;;4990405;28;20252;-48
2022/05/19 08:40:55;;;;;;;4.70;3.20;;;25.40;52.60;26.50;100981.00;;;;4989974;28;20176;-49
2022/05/19 08:43:25;;;;;;;3.63;3.20;;;25.50;53.10;26.50;100979.00;;;;4988739;28;20164;-50
2022/05/19 08:45:54;;;;;;;4.25;3.28;;;25.50;53.10;26.50;100987.00;;;;4988276;28;20200;-49
2022/05/19 08:48:23;;;;;;;3.47;3.17;;;25.50;52.90;26.50;100988.00;;;;4999712;28;20192;-50
2022/05/19 08:50:58;;;;;;;5.65;3.28;;;25.50;52.50;26.50;100989.00;;;;5007159;28;20170;-49
2022/05/19 08:53:27;;;;;;;3.50;3.20;;;25.50;52.60;26.50;100985.00;;;;4985147;28;20189;-49
2022/05/19 08:55:54;;;;;;;5.35;3.08;;;25.50;52.70;26.50;100984.00;;;;4987838;28;20208;-48
2022/05/19 08:59:05;;;;;;;4.32;3.30;;;25.50;52.40;26.50;100969.00;;;;4988275;28;20677;-49
2022/05/19 09:01:50;;;;;;;3.60;3.30;;;25.50;52.50;26.50;100979.00;;;;4975380;28;20615;-49
2022/05/19 09:05:12;;;;;;;4.65;3.38;;;25.50;52.60;26.50;100968.00;;;;4989578;28;20160;-49
2022/05/19 09:07:56;;;;;;;3.60;3.20;;;25.50;52.50;26.50;100966.00;;;;4988140;28;20204;-50
2022/05/19 09:11:15;;;;;;;3.72;3.40;;;25.50;52.90;26.50;100957.00;;;;4987912;28;20251;-48
2022/05/19 09:14:10;;;;;;;3.78;3.30;;;25.50;53.10;26.50;100956.00;;;;4957647;28;20272;-49
2022/05/19 09:16:38;;;;;;;4.18;3.10;;;25.50;53.20;26.50;100958.00;;;;4988021;28;20270;-48
2022/05/19 09:19:21;;;;;;;4.07;3.25;;;25.60;53.50;26.50;100960.00;;;;4987087;28;20196;-48
2022/05/19 09:21:55;;;;;;;4.55;3.38;;;25.50;53.60;26.60;100949.00;;;;4890930;28;20270;-50
2022/05/19 09:24:22;;;;;;;3.40;3.10;;;25.60;53.80;26.60;100953.00;;;;4972382;28;20160;-48
2022/05/19 09:26:53;;;;;;;3.55;3.25;;;25.60;53.80;26.60;100950.00;;;;4988667;28;20184;-48
2022/05/19 09:29:44;;;;;;;5.15;3.67;;;25.70;54.10;26.60;100940.00;;;;4988552;28;20275;-48
2022/05/19 09:32:23;;;;;;;3.90;3.50;;;25.70;54.40;26.60;100934.00;;;;4989241;28;20160;-49
2022/05/19 09:34:52;;;;;;;3.60;3.22;;;25.70;54.30;26.60;100940.00;;;;4985223;28;20156;-48
2022/05/19 09:37:36;;;;;;;3.80;3.40;;;25.70;54.10;26.60;100931.00;;;;4969052;28;20172;-49
2022/05/19 09:40:25;;;;;;;3.63;3.33;;;25.70;53.90;26.70;100927.00;;;;4952917;28;20243;-49
2022/05/19 09:43:06;;;;;;;4.05;3.58;;;25.70;53.80;26.70;100937.00;;;;4953291;28;20183;-50
2022/05/19 09:45:48;;;;;;;3.80;3.50;;;25.70;54.10;26.70;100926.00;;;;4969268;28;20224;-49
2022/05/19 09:48:14;;;;;;;3.95;3.47;;;25.80;54.00;26.70;100926.00;;;;4969373;28;20204;-49
2022/05/19 09:50:48;;;;;;;4.80;3.42;;;25.80;54.00;26.70;100929.00;;;;4972550;28;20176;-49
2022/05/19 09:53:26;;;;;;;4.03;3.70;;;25.80;54.00;26.80;100917.00;;;;4989030;28;20271;-48
2022/05/19 09:55:56;;;;;;;4.30;3.20;;;25.80;53.90;26.80;100917.00;;;;4988509;28;20192;-49
2022/05/19 09:58:22;;;;;;;3.70;3.40;;;25.80;53.80;26.80;100908.00;;;;4987747;28;20200;-49
2022/05/19 10:00:58;;;;;;;4.93;3.60;;;25.90;53.70;26.80;100913.00;;;;4986810;28;20184;-47
2022/05/19 10:03:31;;;;;;;4.35;3.50;;;25.90;53.80;26.80;100903.00;;;;4987214;28;20184;-50
2022/05/19 10:05:57;;;;;;;3.88;3.58;;;25.90;53.90;26.90;100912.00;;;;4986846;28;20199;-49
2022/05/19 10:08:39;;;;;;;4.10;3.72;;;25.90;53.70;26.90;100892.00;;;;4990010;28;20264;-49
2022/05/19 10:11:14;;;;;;;4.43;3.60;;;26.00;54.30;26.90;100893.00;;;;4991949;28;20195;-49
2022/05/19 10:13:49;;;;;;;3.60;3.30;;;26.00;53.70;26.90;100887.00;;;;4992131;28;20229;-49
2022/05/19 10:16:47;;;;;;;3.80;3.50;;;25.90;53.80;27.00;100882.00;;;;4991328;28;20179;-48
2022/05/19 10:19:42;;;;;;;4.63;4.07;;;26.00;53.90;27.00;100896.00;;;;4991155;28;20200;-48
2022/05/19 10:22:48;;;;;;;4.47;3.67;;;26.00;53.70;27.00;100886.00;;;;4991060;28;20203;-48
2022/05/19 10:25:45;;;;;;;4.03;3.63;;;26.10;53.50;27.00;100888.00;;;;4991068;28;20277;-51
2022/05/19 10:31:50;;;;;;;4.97;3.60;;;26.10;53.70;27.00;100876.00;;;;4990959;28;20160;-49
2022/05/19 10:34:32;;;;;;;4.35;3.38;;;26.20;53.60;27.10;100880.00;;;;4993329;28;20160;-48
2022/05/19 10:37:16;;;;;;;5.82;3.78;;;26.20;53.70;27.10;100875.00;;;;4991452;28;20184;-49
2022/05/19 10:40:12;;;;;;;3.83;3.53;;;26.30;53.40;27.10;100872.00;;;;4990695;28;20261;-48
2022/05/19 10:43:20;;;;;;;5.05;3.70;;;26.30;53.30;27.20;100862.00;;;;4990316;28;20156;-47
2022/05/19 10:45:49;;;;;;;4.32;3.38;;;26.30;53.60;27.20;100871.00;;;;4990161;28;20200;-49
2022/05/19 10:48:40;;;;;;;4.22;3.50;;;26.40;53.80;27.20;100859.00;;;;4990027;28;20901;-49
2022/05/19 10:51:26;;;;;;;3.90;3.60;;;26.40;53.00;27.20;100844.00;;;;4901732;28;20184;-49
2022/05/19 10:54:03;;;;;;;6.45;3.70;;;26.40;52.60;27.30;100821.00;;;;4975305;28;20708;-48
2022/05/19 10:56:54;;;;;;;3.65;3.35;;;26.50;53.00;27.30;100817.00;;;;4990022;28;20539;-48
2022/05/19 10:59:54;;;;;;;4.18;3.78;;;26.50;53.60;27.30;100815.00;;;;4975527;28;20196;-48
2022/05/19 11:03:01;;;;;;;4.43;3.67;;;26.50;53.10;27.30;100805.00;;;;4976636;28;20238;-48
2022/05/19 11:05:58;;;;;;;4.00;3.70;;;26.50;53.00;27.40;100813.00;;;;4977427;28;20361;-50
2022/05/19 11:09:03;;;;;;;3.70;3.40;;;26.50;52.40;27.40;100803.00;;;;4970183;28;20200;-52
2022/05/19 11:11:57;;;;;;;4.03;3.30;;;26.60;52.30;27.40;100816.00;;;;4971731;28;20180;-53
2022/05/19 11:14:47;;;;;;;4.50;3.35;;;26.60;53.00;27.50;100816.00;;;;4971356;28;20292;-53